sensor_id;sensor_type;location;lat;lon;timestamp;temperature;humidity
49242;DHT22;35079;52.704;13.814;2022-11-04T00:01:41;9.40;99.90
49242;DHT22;35079;52.704;13.814;2022-11-04T00:04:08;9.40;99.90
49242;DHT22;35079;52.704;13.814;2022-11-04T00:06:34;9.40;99.90
49242;DHT22;35079;52.704;13.814;2022-11-04T00:09:00;9.20;99.90
49242;DHT22;35079;52.704;13.814;2022-11-04T00:11:27;9.20;99.90
49242;DHT22;35079;52.704;13.814;2022-11-04T00:14:11;9.20;99.90
49242;DHT22;35079;52.704;13.814;2022-11-04T00:16:37;9.30;99.90
49242;DHT22;35079;52.704;13.814;2022-11-04T00:19:22;9.20;99.90
49242;DHT22;35079;52.704;13.814;2022-11-04T00:21:48;9.20;99.90
49242;DHT22;35079;52.704;13.814;2022-11-04T00:24:33;9.20;99.90
49242;DHT22;35079;52.704;13.814;2022-11-04T00:27:19;9.10;99.90
49242;DHT22;35079;52.704;13.814;2022-11-04T00:30:06;9.20;99.90
49242;DHT22;35079;52.704;13.814;2022-11-04T00:32:35;9.10;99.90
49242;DHT22;35079;52.704;13.814;2022-11-04T00:35:19;9.00;99.90
49242;DHT22;35079;52.704;13.814;2022-11-04T00:37:45;9.10;99.90
49242;DHT22;35079;52.704;13.814;2022-11-04T00:40:14;8.90;99.90
49242;DHT22;35079;52.704;13.814;2022-11-04T00:42:42;9.00;99.90
49242;DHT22;35079;52.704;13.814;2022-11-04T00:45:09;8.90;99.90
49242;DHT22;35079;52.704;13.814;2022-11-04T00:47:34;8.90;99.90
49242;DHT22;35079;52.704;13.814;2022-11-04T00:50:00;8.90;99.90
49242;DHT22;35079;52.704;13.814;2022-11-04T00:52:25;8.80;99.90
49242;DHT22;35079;52.704;13.814;2022-11-04T00:54:51;8.80;99.90
49242;DHT22;35079;52.704;13.814;2022-11-04T00:57:17;9.00;99.90
49242;DHT22;35079;52.704;13.814;2022-11-04T00:59:42;8.90;99.90
49242;DHT22;35079;52.704;13.814;2022-11-04T01:02:10;8.80;99.90
49242;DHT22;35079;52.704;13.814;2022-11-04T01:04:36;8.90;99.90
49242;DHT22;35079;52.704;13.814;2022-11-04T01:07:02;8.70;99.90
49242;DHT22;35079;52.704;13.814;2022-11-04T01:09:28;8.60;99.90
49242;DHT22;35079;52.704;13.814;2022-11-04T01:11:54;8.80;99.90
49242;DHT22;35079;52.704;13.814;2022-11-04T01:14:20;8.70;99.90
49242;DHT22;35079;52.704;13.814;2022-11-04T01:16:48;8.60;99.90
49242;DHT22;35079;52.704;13.814;2022-11-04T01:19:15;8.70;99.90
49242;DHT22;35079;52.704;13.814;2022-11-04T01:21:41;8.70;99.90
49242;DHT22;35079;52.704;13.814;2022-11-04T01:24:07;8.70;99.90
49242;DHT22;35079;52.704;13.814;2022-11-04T01:26:32;8.70;99.90
49242;DHT22;35079;52.704;13.814;2022-11-04T01:28:58;8.60;99.90
49242;DHT22;35079;52.704;13.814;2022-11-04T01:31:29;8.70;99.90
49242;DHT22;35079;52.704;13.814;2022-11-04T01:33:55;8.60;99.90
49242;DHT22;35079;52.704;13.814;2022-11-04T01:36:21;8.60;99.90
49242;DHT22;35079;52.704;13.814;2022-11-04T01:38:47;8.60;99.90
49242;DHT22;35079;52.704;13.814;2022-11-04T01:41:28;8.60;99.90
49242;DHT22;35079;52.704;13.814;2022-11-04T01:44:00;8.50;99.90
49242;DHT22;35079;52.704;13.814;2022-11-04T01:46:27;8.50;99.90
49242;DHT22;35079;52.704;13.814;2022-11-04T01:48:59;8.50;99.90
49242;DHT22;35079;52.704;13.814;2022-11-04T01:51:26;8.40;99.90
49242;DHT22;35079;52.704;13.814;2022-11-04T01:53:54;8.40;99.90
49242;DHT22;35079;52.704;13.814;2022-11-04T01:56:21;8.40;99.90
49242;DHT22;35079;52.704;13.814;2022-11-04T01:58:50;8.40;99.90
49242;DHT22;35079;52.704;13.814;2022-11-04T02:01:17;8.50;99.90
49242;DHT22;35079;52.704;13.814;2022-11-04T02:03:50;8.60;99.90
49242;DHT22;35079;52.704;13.814;2022-11-04T02:06:19;8.70;99.90
49242;DHT22;35079;52.704;13.814;2022-11-04T02:08:45;8.70;99.90
49242;DHT22;35079;52.704;13.814;2022-11-04T02:11:11;8.60;99.90
49242;DHT22;35079;52.704;13.814;2022-11-04T02:13:57;8.70;99.90
49242;DHT22;35079;52.704;13.814;2022-11-04T02:30:14;8.90;99.90
49242;DHT22;35079;52.704;13.814;2022-11-04T02:33:04;9.00;99.90
49242;DHT22;35079;52.704;13.814;2022-11-04T02:46:53;9.10;99.90
49242;DHT22;35079;52.704;13.814;2022-11-04T02:49:45;9.10;99.90
49242;DHT22;35079;52.704;13.814;2022-11-04T02:52:19;9.10;99.90
49242;DHT22;35079;52.704;13.814;2022-11-04T02:54:55;9.10;99.90
49242;DHT22;35079;52.704;13.814;2022-11-04T02:57:29;9.10;99.90
49242;DHT22;35079;52.704;13.814;2022-11-04T03:00:01;9.10;99.90
49242;DHT22;35079;52.704;13.814;2022-11-04T03:02:36;9.00;99.90
49242;DHT22;35079;52.704;13.814;2022-11-04T03:05:05;8.90;99.90
49242;DHT22;35079;52.704;13.814;2022-11-04T03:07:35;8.90;99.90
49242;DHT22;35079;52.704;13.814;2022-11-04T03:10:07;8.90;99.90
49242;DHT22;35079;52.704;13.814;2022-11-04T03:12:46;8.80;99.90
49242;DHT22;35079;52.704;13.814;2022-11-04T03:15:19;8.80;99.90
49242;DHT22;35079;52.704;13.814;2022-11-04T03:20:23;8.70;99.90
49242;DHT22;35079;52.704;13.814;2022-11-04T03:22:51;8.60;99.90
49242;DHT22;35079;52.704;13.814;2022-11-04T03:25:21;8.60;99.90
49242;DHT22;35079;52.704;13.814;2022-11-04T03:31:02;8.50;99.90
49242;DHT22;35079;52.704;13.814;2022-11-04T03:33:42;8.50;99.90
49242;DHT22;35079;52.704;13.814;2022-11-04T03:36:09;8.50;99.90
49242;DHT22;35079;52.704;13.814;2022-11-04T03:38:36;8.50;99.90
49242;DHT22;35079;52.704;13.814;2022-11-04T03:41:08;8.60;99.90
49242;DHT22;35079;52.704;13.814;2022-11-04T03:43:36;8.50;99.90
49242;DHT22;35079;52.704;13.814;2022-11-04T03:46:02;8.60;99.90
49242;DHT22;35079;52.704;13.814;2022-11-04T03:48:28;8.60;99.90
49242;DHT22;35079;52.704;13.814;2022-11-04T03:50:54;8.60;99.90
49242;DHT22;35079;52.704;13.814;2022-11-04T03:53:21;8.70;99.90
49242;DHT22;35079;52.704;13.814;2022-11-04T03:55:55;8.70;99.90
49242;DHT22;35079;52.704;13.814;2022-11-04T04:04:00;8.50;99.90
49242;DHT22;35079;52.704;13.814;2022-11-04T04:06:32;8.50;99.90
49242;DHT22;35079;52.704;13.814;2022-11-04T04:09:19;8.50;99.90
49242;DHT22;35079;52.704;13.814;2022-11-04T04:11:49;8.50;99.90
49242;DHT22;35079;52.704;13.814;2022-11-04T04:14:39;8.50;99.90
49242;DHT22;35079;52.704;13.814;2022-11-04T04:17:28;8.40;99.90
49242;DHT22;35079;52.704;13.814;2022-11-04T04:19:58;8.40;99.90
49242;DHT22;35079;52.704;13.814;2022-11-04T04:22:32;8.40;99.90
49242;DHT22;35079;52.704;13.814;2022-11-04T04:25:01;8.40;99.90
49242;DHT22;35079;52.704;13.814;2022-11-04T04:27:48;8.50;99.90
49242;DHT22;35079;52.704;13.814;2022-11-04T04:30:15;8.50;99.90
49242;DHT22;35079;52.704;13.814;2022-11-04T04:35:12;8.60;99.90
49242;DHT22;35079;52.704;13.814;2022-11-04T04:38:00;8.70;99.90
49242;DHT22;35079;52.704;13.814;2022-11-04T04:40:50;8.60;99.90
49242;DHT22;35079;52.704;13.814;2022-11-04T04:43:37;8.50;99.90
49242;DHT22;35079;52.704;13.814;2022-11-04T04:46:22;8.70;99.90
49242;DHT22;35079;52.704;13.814;2022-11-04T04:48:48;8.60;99.90
49242;DHT22;35079;52.704;13.814;2022-11-04T04:51:14;8.70;99.90
49242;DHT22;35079;52.704;13.814;2022-11-04T04:53:40;8.70;99.90
49242;DHT22;35079;52.704;13.814;2022-11-04T04:56:05;8.60;99.90
49242;DHT22;35079;52.704;13.814;2022-11-04T04:58:31;8.70;99.90
49242;DHT22;35079;52.704;13.814;2022-11-04T05:00:56;8.80;99.90
49242;DHT22;35079;52.704;13.814;2022-11-04T05:03:23;8.80;99.90
49242;DHT22;35079;52.704;13.814;2022-11-04T05:05:49;8.80;99.90
49242;DHT22;35079;52.704;13.814;2022-11-04T05:08:15;8.80;99.90
49242;DHT22;35079;52.704;13.814;2022-11-04T05:10:40;8.80;99.90
49242;DHT22;35079;52.704;13.814;2022-11-04T05:13:06;8.80;99.90
49242;DHT22;35079;52.704;13.814;2022-11-04T05:15:50;8.90;99.90
49242;DHT22;35079;52.704;13.814;2022-11-04T05:18:15;8.80;99.90
49242;DHT22;35079;52.704;13.814;2022-11-04T05:20:41;8.80;99.90
49242;DHT22;35079;52.704;13.814;2022-11-04T05:23:07;8.80;99.90
49242;DHT22;35079;52.704;13.814;2022-11-04T05:25:33;8.90;99.90
49242;DHT22;35079;52.704;13.814;2022-11-04T05:28:00;8.90;99.90
49242;DHT22;35079;52.704;13.814;2022-11-04T05:30:26;8.90;99.90
49242;DHT22;35079;52.704;13.814;2022-11-04T05:32:51;8.90;99.90
49242;DHT22;35079;52.704;13.814;2022-11-04T05:35:17;9.00;99.90
49242;DHT22;35079;52.704;13.814;2022-11-04T05:37:43;9.10;99.90
49242;DHT22;35079;52.704;13.814;2022-11-04T05:40:09;9.10;99.90
49242;DHT22;35079;52.704;13.814;2022-11-04T05:42:34;9.10;99.90
49242;DHT22;35079;52.704;13.814;2022-11-04T05:45:04;9.30;99.90
49242;DHT22;35079;52.704;13.814;2022-11-04T05:47:29;9.30;99.90
49242;DHT22;35079;52.704;13.814;2022-11-04T05:49:55;9.30;99.90
49242;DHT22;35079;52.704;13.814;2022-11-04T05:52:21;9.40;99.90
49242;DHT22;35079;52.704;13.814;2022-11-04T05:54:46;9.30;99.90
49242;DHT22;35079;52.704;13.814;2022-11-04T05:57:12;9.50;99.90
49242;DHT22;35079;52.704;13.814;2022-11-04T05:59:38;9.50;99.90
49242;DHT22;35079;52.704;13.814;2022-11-04T06:02:03;9.40;99.90
49242;DHT22;35079;52.704;13.814;2022-11-04T06:04:29;9.30;99.90
49242;DHT22;35079;52.704;13.814;2022-11-04T06:06:55;9.40;99.90
49242;DHT22;35079;52.704;13.814;2022-11-04T06:09:20;9.30;99.90
49242;DHT22;35079;52.704;13.814;2022-11-04T06:12:07;9.30;99.90
49242;DHT22;35079;52.704;13.814;2022-11-04T06:14:33;9.30;99.90
49242;DHT22;35079;52.704;13.814;2022-11-04T06:16:59;9.30;99.90
49242;DHT22;35079;52.704;13.814;2022-11-04T06:19:25;9.30;99.90
49242;DHT22;35079;52.704;13.814;2022-11-04T06:21:51;9.30;99.90
49242;DHT22;35079;52.704;13.814;2022-11-04T06:24:16;9.40;99.90
49242;DHT22;35079;52.704;13.814;2022-11-04T06:26:42;9.30;99.90
49242;DHT22;35079;52.704;13.814;2022-11-04T06:29:07;9.40;99.90
49242;DHT22;35079;52.704;13.814;2022-11-04T06:31:34;9.40;99.90
49242;DHT22;35079;52.704;13.814;2022-11-04T06:33:59;9.40;99.90
49242;DHT22;35079;52.704;13.814;2022-11-04T06:36:25;9.30;99.90
49242;DHT22;35079;52.704;13.814;2022-11-04T06:38:51;9.20;99.90
49242;DHT22;35079;52.704;13.814;2022-11-04T06:41:17;9.20;99.90
49242;DHT22;35079;52.704;13.814;2022-11-04T06:43:42;9.20;99.90
49242;DHT22;35079;52.704;13.814;2022-11-04T06:48:48;9.30;99.90
49242;DHT22;35079;52.704;13.814;2022-11-04T06:51:14;9.20;99.90
49242;DHT22;35079;52.704;13.814;2022-11-04T06:53:39;9.40;99.90
49242;DHT22;35079;52.704;13.814;2022-11-04T06:56:05;9.30;99.90
49242;DHT22;35079;52.704;13.814;2022-11-04T06:58:31;9.30;99.90
49242;DHT22;35079;52.704;13.814;2022-11-04T07:00:56;9.30;99.90
49242;DHT22;35079;52.704;13.814;2022-11-04T07:03:22;9.40;99.90
49242;DHT22;35079;52.704;13.814;2022-11-04T07:05:48;9.40;99.90
49242;DHT22;35079;52.704;13.814;2022-11-04T07:08:13;9.40;99.90
49242;DHT22;35079;52.704;13.814;2022-11-04T07:10:39;9.50;99.90
49242;DHT22;35079;52.704;13.814;2022-11-04T07:13:05;9.60;99.90
49242;DHT22;35079;52.704;13.814;2022-11-04T07:15:30;9.70;99.90
49242;DHT22;35079;52.704;13.814;2022-11-04T07:17:58;9.70;99.90
49242;DHT22;35079;52.704;13.814;2022-11-04T07:20:24;9.70;99.90
49242;DHT22;35079;52.704;13.814;2022-11-04T07:22:49;9.70;99.90
49242;DHT22;35079;52.704;13.814;2022-11-04T07:25:15;9.70;99.90
49242;DHT22;35079;52.704;13.814;2022-11-04T07:27:41;9.70;99.90
49242;DHT22;35079;52.704;13.814;2022-11-04T07:30:07;9.70;99.90
49242;DHT22;35079;52.704;13.814;2022-11-04T07:32:33;9.60;99.90
49242;DHT22;35079;52.704;13.814;2022-11-04T07:34:58;9.60;99.90
49242;DHT22;35079;52.704;13.814;2022-11-04T07:37:24;9.80;99.90
49242;DHT22;35079;52.704;13.814;2022-11-04T07:39:50;9.90;99.90
49242;DHT22;35079;52.704;13.814;2022-11-04T07:42:16;9.90;99.90
49242;DHT22;35079;52.704;13.814;2022-11-04T07:44:41;9.80;99.90
49242;DHT22;35079;52.704;13.814;2022-11-04T07:47:07;9.90;99.90
49242;DHT22;35079;52.704;13.814;2022-11-04T07:49:32;9.90;99.90
49242;DHT22;35079;52.704;13.814;2022-11-04T07:51:58;9.90;99.90
49242;DHT22;35079;52.704;13.814;2022-11-04T07:54:24;9.90;99.90
49242;DHT22;35079;52.704;13.814;2022-11-04T07:56:49;10.10;99.90
49242;DHT22;35079;52.704;13.814;2022-11-04T07:59:15;10.10;99.90
49242;DHT22;35079;52.704;13.814;2022-11-04T08:01:40;10.20;99.90
49242;DHT22;35079;52.704;13.814;2022-11-04T08:04:06;10.30;99.90
49242;DHT22;35079;52.704;13.814;2022-11-04T08:06:32;10.30;99.90
49242;DHT22;35079;52.704;13.814;2022-11-04T08:08:58;10.50;99.90
49242;DHT22;35079;52.704;13.814;2022-11-04T08:11:24;10.50;99.90
49242;DHT22;35079;52.704;13.814;2022-11-04T08:13:53;10.50;99.90
49242;DHT22;35079;52.704;13.814;2022-11-04T08:16:20;10.60;99.90
49242;DHT22;35079;52.704;13.814;2022-11-04T08:18:47;10.70;99.90
49242;DHT22;35079;52.704;13.814;2022-11-04T08:21:13;10.90;99.90
49242;DHT22;35079;52.704;13.814;2022-11-04T08:23:39;11.00;99.90
49242;DHT22;35079;52.704;13.814;2022-11-04T08:26:10;11.10;99.90
49242;DHT22;35079;52.704;13.814;2022-11-04T08:28:36;11.30;99.90
49242;DHT22;35079;52.704;13.814;2022-11-04T08:31:08;11.30;99.90
49242;DHT22;35079;52.704;13.814;2022-11-04T08:33:34;11.50;99.90
49242;DHT22;35079;52.704;13.814;2022-11-04T08:36:04;11.60;99.90
49242;DHT22;35079;52.704;13.814;2022-11-04T08:38:31;11.50;99.90
49242;DHT22;35079;52.704;13.814;2022-11-04T08:40:58;11.50;99.90
49242;DHT22;35079;52.704;13.814;2022-11-04T08:43:24;11.60;99.90
49242;DHT22;35079;52.704;13.814;2022-11-04T08:45:50;11.60;99.90
49242;DHT22;35079;52.704;13.814;2022-11-04T08:48:16;11.60;99.90
49242;DHT22;35079;52.704;13.814;2022-11-04T08:50:42;11.60;99.90
49242;DHT22;35079;52.704;13.814;2022-11-04T08:53:08;11.70;99.90
49242;DHT22;35079;52.704;13.814;2022-11-04T08:55:34;11.60;99.90
49242;DHT22;35079;52.704;13.814;2022-11-04T08:58:00;11.60;99.90
49242;DHT22;35079;52.704;13.814;2022-11-04T09:00:26;11.80;99.90
49242;DHT22;35079;52.704;13.814;2022-11-04T09:02:52;11.70;99.90
49242;DHT22;35079;52.704;13.814;2022-11-04T09:05:20;11.70;99.90
49242;DHT22;35079;52.704;13.814;2022-11-04T09:07:45;11.60;99.90
49242;DHT22;35079;52.704;13.814;2022-11-04T09:10:11;11.70;99.90
49242;DHT22;35079;52.704;13.814;2022-11-04T09:12:36;11.50;99.90
49242;DHT22;35079;52.704;13.814;2022-11-04T09:15:03;11.50;99.90
49242;DHT22;35079;52.704;13.814;2022-11-04T09:17:30;11.50;99.90
49242;DHT22;35079;52.704;13.814;2022-11-04T09:19:56;11.60;99.90
49242;DHT22;35079;52.704;13.814;2022-11-04T09:22:21;11.60;99.90
49242;DHT22;35079;52.704;13.814;2022-11-04T09:24:47;11.60;99.90
49242;DHT22;35079;52.704;13.814;2022-11-04T09:27:13;11.70;99.90
49242;DHT22;35079;52.704;13.814;2022-11-04T09:29:39;11.80;99.90
49242;DHT22;35079;52.704;13.814;2022-11-04T09:32:06;11.80;99.90
49242;DHT22;35079;52.704;13.814;2022-11-04T09:34:31;11.80;99.90
49242;DHT22;35079;52.704;13.814;2022-11-04T09:36:57;11.90;99.90
49242;DHT22;35079;52.704;13.814;2022-11-04T09:39:24;12.00;99.90
49242;DHT22;35079;52.704;13.814;2022-11-04T09:42:01;12.10;99.90
49242;DHT22;35079;52.704;13.814;2022-11-04T09:44:50;12.30;99.90
49242;DHT22;35079;52.704;13.814;2022-11-04T09:47:16;12.50;99.90
49242;DHT22;35079;52.704;13.814;2022-11-04T09:49:45;12.50;99.90
49242;DHT22;35079;52.704;13.814;2022-11-04T09:52:17;12.60;99.90
49242;DHT22;35079;52.704;13.814;2022-11-04T09:57:30;12.60;99.90
49242;DHT22;35079;52.704;13.814;2022-11-04T09:59:58;12.60;99.90
49242;DHT22;35079;52.704;13.814;2022-11-04T10:05:26;12.60;99.90
49242;DHT22;35079;52.704;13.814;2022-11-04T10:10:43;12.40;99.90
49242;DHT22;35079;52.704;13.814;2022-11-04T10:13:23;12.40;99.90
49242;DHT22;35079;52.704;13.814;2022-11-04T10:29:15;12.50;99.90
49242;DHT22;35079;52.704;13.814;2022-11-04T10:31:43;12.60;99.90
49242;DHT22;35079;52.704;13.814;2022-11-04T10:34:35;12.50;99.90
49242;DHT22;35079;52.704;13.814;2022-11-04T10:37:02;12.50;99.90
49242;DHT22;35079;52.704;13.814;2022-11-04T10:39:31;12.40;99.90
49242;DHT22;35079;52.704;13.814;2022-11-04T10:41:58;12.60;99.90
49242;DHT22;35079;52.704;13.814;2022-11-04T10:44:30;12.60;99.90
49242;DHT22;35079;52.704;13.814;2022-11-04T10:52:34;12.60;99.90
49242;DHT22;35079;52.704;13.814;2022-11-04T10:55:00;12.60;99.90
49242;DHT22;35079;52.704;13.814;2022-11-04T10:57:28;12.70;99.90
49242;DHT22;35079;52.704;13.814;2022-11-04T10:59:59;12.80;99.90
49242;DHT22;35079;52.704;13.814;2022-11-04T11:05:22;12.80;99.90
49242;DHT22;35079;52.704;13.814;2022-11-04T11:07:52;12.70;99.90
49242;DHT22;35079;52.704;13.814;2022-11-04T11:10:29;12.80;99.90
49242;DHT22;35079;52.704;13.814;2022-11-04T11:12:58;12.60;99.90
49242;DHT22;35079;52.704;13.814;2022-11-04T11:15:32;12.60;99.90
49242;DHT22;35079;52.704;13.814;2022-11-04T11:20:31;12.40;99.90
49242;DHT22;35079;52.704;13.814;2022-11-04T11:22:58;12.40;99.90
49242;DHT22;35079;52.704;13.814;2022-11-04T11:30:31;12.30;99.90
49242;DHT22;35079;52.704;13.814;2022-11-04T11:33:03;12.30;99.90
49242;DHT22;35079;52.704;13.814;2022-11-04T11:35:40;12.30;99.90
49242;DHT22;35079;52.704;13.814;2022-11-04T11:40:50;12.40;99.90
49242;DHT22;35079;52.704;13.814;2022-11-04T11:43:29;12.40;99.90
49242;DHT22;35079;52.704;13.814;2022-11-04T11:45:56;12.30;99.90
49242;DHT22;35079;52.704;13.814;2022-11-04T11:48:44;12.30;99.90
49242;DHT22;35079;52.704;13.814;2022-11-04T11:51:25;12.30;99.90
49242;DHT22;35079;52.704;13.814;2022-11-04T11:54:06;12.20;99.90
49242;DHT22;35079;52.704;13.814;2022-11-04T11:56:38;12.20;99.90
49242;DHT22;35079;52.704;13.814;2022-11-04T11:59:19;12.10;99.90
49242;DHT22;35079;52.704;13.814;2022-11-04T12:02:00;12.20;99.90
49242;DHT22;35079;52.704;13.814;2022-11-04T12:04:26;12.10;99.90
49242;DHT22;35079;52.704;13.814;2022-11-04T12:09:40;12.10;99.90
49242;DHT22;35079;52.704;13.814;2022-11-04T12:12:38;12.00;99.90
49242;DHT22;35079;52.704;13.814;2022-11-04T12:15:26;12.00;99.90
49242;DHT22;35079;52.704;13.814;2022-11-04T12:18:06;12.20;99.90
49242;DHT22;35079;52.704;13.814;2022-11-04T12:20:48;12.10;99.90
49242;DHT22;35079;52.704;13.814;2022-11-04T12:23:30;12.00;99.90
49242;DHT22;35079;52.704;13.814;2022-11-04T12:34:22;11.80;99.90
49242;DHT22;35079;52.704;13.814;2022-11-04T12:37:09;11.70;99.90
49242;DHT22;35079;52.704;13.814;2022-11-04T12:42:26;11.50;99.90
49242;DHT22;35079;52.704;13.814;2022-11-04T12:47:39;11.40;99.90
49242;DHT22;35079;52.704;13.814;2022-11-04T12:50:22;11.40;99.90
49242;DHT22;35079;52.704;13.814;2022-11-04T12:55:38;11.40;99.90
49242;DHT22;35079;52.704;13.814;2022-11-04T13:01:05;11.30;99.90
49242;DHT22;35079;52.704;13.814;2022-11-04T13:03:53;11.40;99.90
49242;DHT22;35079;52.704;13.814;2022-11-04T13:06:32;11.30;99.90
49242;DHT22;35079;52.704;13.814;2022-11-04T13:09:05;11.40;99.90
49242;DHT22;35079;52.704;13.814;2022-11-04T13:11:43;11.30;99.90
49242;DHT22;35079;52.704;13.814;2022-11-04T13:14:29;11.20;99.90
49242;DHT22;35079;52.704;13.814;2022-11-04T13:16:59;11.30;99.90
49242;DHT22;35079;52.704;13.814;2022-11-04T13:21:56;11.10;99.90
49242;DHT22;35079;52.704;13.814;2022-11-04T13:24:27;11.20;99.90
49242;DHT22;35079;52.704;13.814;2022-11-04T13:26:59;10.90;99.90
49242;DHT22;35079;52.704;13.814;2022-11-04T13:29:27;11.00;99.90
49242;DHT22;35079;52.704;13.814;2022-11-04T13:35:17;10.90;99.90
49242;DHT22;35079;52.704;13.814;2022-11-04T13:38:03;11.00;99.90
49242;DHT22;35079;52.704;13.814;2022-11-04T13:40:43;11.00;99.90
49242;DHT22;35079;52.704;13.814;2022-11-04T13:43:18;11.00;99.90
49242;DHT22;35079;52.704;13.814;2022-11-04T13:46:25;10.90;99.90
49242;DHT22;35079;52.704;13.814;2022-11-04T13:52:26;10.90;99.90
49242;DHT22;35079;52.704;13.814;2022-11-04T13:54:34;11.00;99.90
49242;DHT22;35079;52.704;13.814;2022-11-04T13:57:11;10.90;99.90
49242;DHT22;35079;52.704;13.814;2022-11-04T13:59:38;10.90;99.90
49242;DHT22;35079;52.704;13.814;2022-11-04T14:04:38;10.90;99.90
49242;DHT22;35079;52.704;13.814;2022-11-04T14:07:15;10.90;99.90
49242;DHT22;35079;52.704;13.814;2022-11-04T14:15:03;10.90;99.90
49242;DHT22;35079;52.704;13.814;2022-11-04T14:27:54;10.80;99.90
49242;DHT22;35079;52.704;13.814;2022-11-04T14:30:36;10.90;99.90
49242;DHT22;35079;52.704;13.814;2022-11-04T14:33:16;10.80;99.90
49242;DHT22;35079;52.704;13.814;2022-11-04T14:35:44;10.80;99.90
49242;DHT22;35079;52.704;13.814;2022-11-04T14:38:26;10.70;99.90
49242;DHT22;35079;52.704;13.814;2022-11-04T14:41:20;10.80;99.90
49242;DHT22;35079;52.704;13.814;2022-11-04T14:43:47;10.60;99.90
49242;DHT22;35079;52.704;13.814;2022-11-04T14:46:19;10.70;99.90
49242;DHT22;35079;52.704;13.814;2022-11-04T14:48:49;10.80;99.90
49242;DHT22;35079;52.704;13.814;2022-11-04T14:51:31;10.70;99.90
49242;DHT22;35079;52.704;13.814;2022-11-04T14:56:36;10.80;99.90
49242;DHT22;35079;52.704;13.814;2022-11-04T14:59:05;10.70;99.90
49242;DHT22;35079;52.704;13.814;2022-11-04T15:01:34;10.60;99.90
49242;DHT22;35079;52.704;13.814;2022-11-04T15:04:24;10.50;99.90
49242;DHT22;35079;52.704;13.814;2022-11-04T15:07:03;10.50;99.90
49242;DHT22;35079;52.704;13.814;2022-11-04T15:09:31;10.50;99.90
49242;DHT22;35079;52.704;13.814;2022-11-04T15:17:48;10.40;99.90
49242;DHT22;35079;52.704;13.814;2022-11-04T15:20:22;10.40;99.90
49242;DHT22;35079;52.704;13.814;2022-11-04T15:22:48;10.40;99.90
49242;DHT22;35079;52.704;13.814;2022-11-04T15:25:15;10.40;99.90
49242;DHT22;35079;52.704;13.814;2022-11-04T15:27:41;10.40;99.90
49242;DHT22;35079;52.704;13.814;2022-11-04T15:30:22;10.20;99.90
49242;DHT22;35079;52.704;13.814;2022-11-04T15:32:57;10.20;99.90
49242;DHT22;35079;52.704;13.814;2022-11-04T15:35:23;10.30;99.90
49242;DHT22;35079;52.704;13.814;2022-11-04T15:37:50;10.10;99.90
49242;DHT22;35079;52.704;13.814;2022-11-04T15:40:16;10.20;99.90
49242;DHT22;35079;52.704;13.814;2022-11-04T15:42:44;10.20;99.90
49242;DHT22;35079;52.704;13.814;2022-11-04T15:45:31;10.10;99.90
49242;DHT22;35079;52.704;13.814;2022-11-04T15:53:31;10.10;99.90
49242;DHT22;35079;52.704;13.814;2022-11-04T15:55:59;10.10;99.90
49242;DHT22;35079;52.704;13.814;2022-11-04T15:58:25;10.20;99.90
49242;DHT22;35079;52.704;13.814;2022-11-04T16:00:53;10.20;99.90
49242;DHT22;35079;52.704;13.814;2022-11-04T16:03:20;10.10;99.90
49242;DHT22;35079;52.704;13.814;2022-11-04T16:06:05;10.20;99.90
49242;DHT22;35079;52.704;13.814;2022-11-04T16:08:32;10.10;99.90
49242;DHT22;35079;52.704;13.814;2022-11-04T16:11:10;10.10;99.90
49242;DHT22;35079;52.704;13.814;2022-11-04T16:13:49;10.10;99.90
49242;DHT22;35079;52.704;13.814;2022-11-04T16:16:24;10.10;99.90
49242;DHT22;35079;52.704;13.814;2022-11-04T16:18:53;10.10;99.90
49242;DHT22;35079;52.704;13.814;2022-11-04T16:21:34;10.20;99.90
49242;DHT22;35079;52.704;13.814;2022-11-04T16:24:04;10.10;99.90
49242;DHT22;35079;52.704;13.814;2022-11-04T16:26:36;10.10;99.90
49242;DHT22;35079;52.704;13.814;2022-11-04T16:29:08;10.10;99.90
49242;DHT22;35079;52.704;13.814;2022-11-04T16:31:35;10.10;99.90
49242;DHT22;35079;52.704;13.814;2022-11-04T16:34:02;10.00;99.90
49242;DHT22;35079;52.704;13.814;2022-11-04T16:36:28;10.10;99.90
49242;DHT22;35079;52.704;13.814;2022-11-04T16:38:58;10.00;99.90
49242;DHT22;35079;52.704;13.814;2022-11-04T16:41:26;10.10;99.90
49242;DHT22;35079;52.704;13.814;2022-11-04T16:43:52;10.10;99.90
49242;DHT22;35079;52.704;13.814;2022-11-04T16:46:19;10.00;99.90
49242;DHT22;35079;52.704;13.814;2022-11-04T16:48:45;10.10;99.90
49242;DHT22;35079;52.704;13.814;2022-11-04T16:51:21;10.00;99.90
49242;DHT22;35079;52.704;13.814;2022-11-04T16:53:49;10.00;99.90
49242;DHT22;35079;52.704;13.814;2022-11-04T16:56:17;10.00;99.90
49242;DHT22;35079;52.704;13.814;2022-11-04T16:58:43;10.10;99.90
49242;DHT22;35079;52.704;13.814;2022-11-04T17:01:13;10.00;99.90
49242;DHT22;35079;52.704;13.814;2022-11-04T17:03:40;10.00;99.90
49242;DHT22;35079;52.704;13.814;2022-11-04T17:06:08;10.10;99.90
49242;DHT22;35079;52.704;13.814;2022-11-04T17:08:34;10.10;99.90
49242;DHT22;35079;52.704;13.814;2022-11-04T17:11:00;9.90;99.90
49242;DHT22;35079;52.704;13.814;2022-11-04T17:13:26;10.10;99.90
49242;DHT22;35079;52.704;13.814;2022-11-04T17:15:51;10.10;99.90
49242;DHT22;35079;52.704;13.814;2022-11-04T17:18:18;10.00;99.90
49242;DHT22;35079;52.704;13.814;2022-11-04T17:20:50;10.00;99.90
49242;DHT22;35079;52.704;13.814;2022-11-04T17:23:16;10.00;99.90
49242;DHT22;35079;52.704;13.814;2022-11-04T17:25:42;10.10;99.90
49242;DHT22;35079;52.704;13.814;2022-11-04T17:28:08;10.00;99.90
49242;DHT22;35079;52.704;13.814;2022-11-04T17:30:34;10.10;99.90
49242;DHT22;35079;52.704;13.814;2022-11-04T17:33:00;10.00;99.90
49242;DHT22;35079;52.704;13.814;2022-11-04T17:35:33;9.90;99.90
49242;DHT22;35079;52.704;13.814;2022-11-04T17:38:01;10.00;99.90
49242;DHT22;35079;52.704;13.814;2022-11-04T17:40:27;10.00;99.90
49242;DHT22;35079;52.704;13.814;2022-11-04T17:42:52;10.10;99.90
49242;DHT22;35079;52.704;13.814;2022-11-04T17:45:37;10.00;99.90
49242;DHT22;35079;52.704;13.814;2022-11-04T17:48:03;10.00;99.90
49242;DHT22;35079;52.704;13.814;2022-11-04T17:50:30;10.00;99.90
49242;DHT22;35079;52.704;13.814;2022-11-04T17:52:56;10.10;99.90
49242;DHT22;35079;52.704;13.814;2022-11-04T17:55:22;10.10;99.90
49242;DHT22;35079;52.704;13.814;2022-11-04T17:57:47;10.00;99.90
49242;DHT22;35079;52.704;13.814;2022-11-04T18:00:13;10.10;99.90
49242;DHT22;35079;52.704;13.814;2022-11-04T18:02:39;10.00;99.90
49242;DHT22;35079;52.704;13.814;2022-11-04T18:05:06;10.10;99.90
49242;DHT22;35079;52.704;13.814;2022-11-04T18:07:32;10.10;99.90